createdAt,value
2022-08-30T03:51:22.633Z,28.4
2022-08-30T03:56:58.637Z,28.4
2022-08-30T04:02:50.235Z,28.4
2022-08-30T04:08:16.568Z,28.4
2022-08-30T04:13:30.474Z,28.4
2022-08-30T04:18:53.301Z,28.4
2022-08-30T04:24:18.228Z,28.5
2022-08-30T04:29:53.131Z,28.4
2022-08-30T04:35:34.285Z,28.4
2022-08-30T04:41:14.550Z,28.5
2022-08-30T04:46:51.670Z,28.5
2022-08-30T04:52:14.530Z,28.5
2022-08-30T04:57:52.637Z,28.5
2022-08-30T05:03:42.057Z,28.6
2022-08-30T05:09:20.054Z,28.5
2022-08-30T05:15:02.249Z,28.5
2022-08-30T05:20:43.546Z,28.6
2022-08-30T05:26:20.904Z,28.6
2022-08-30T05:32:03.771Z,28.6
2022-08-30T05:37:42.239Z,28.6
2022-08-30T05:43:46.542Z,28.6
2022-08-30T05:49:35.230Z,28.6
2022-08-30T05:55:12.780Z,28.6
2022-08-30T06:00:50.568Z,28.4
2022-08-30T06:06:55.299Z,28.2
2022-08-30T06:12:36.563Z,28.1
2022-08-30T06:18:17.654Z,28
2022-08-30T06:24:04.175Z,27.9
2022-08-30T06:35:42.285Z,27.8
2022-08-30T06:41:43.183Z,27.7
2022-08-30T06:47:24.138Z,27.7
2022-08-30T06:53:08.742Z,27.7
2022-08-30T06:58:54.284Z,27.7
2022-08-30T07:04:34.658Z,27.7
2022-08-30T07:10:19.794Z,27.6
2022-08-30T07:15:59.427Z,27.6
2022-08-30T07:21:50.026Z,27.6
2022-08-30T07:27:47.659Z,27.6
2022-08-30T07:33:28.640Z,27.6
2022-08-30T07:39:15.415Z,27.7
2022-08-30T07:44:58.044Z,27.7
2022-08-30T07:50:35.760Z,31.8
2022-08-30T07:56:04.819Z,32.6
